Time;durP1;ratioP1;P1;durP2;ratioP2;P2;SDS_P1;SDS_P2;PMS_P1;PMS_P2;Temp;Humidity;BMP_temperature;BMP_pressure;BME280_temperature;BME280_humidity;BME280_pressure;Samples;Min_cycle;Max_cycle;Signal;HPM_P1;HPM_P2
2022/07/15 00:00:15;;;;;;;11.82;2.67;;;12.10;99.90;;;;;;6156004;23;20020;-86
2022/07/15 00:02:40;;;;;;;12.18;2.90;;;12.00;99.90;;;;;;6155597;23;20025;-85
2022/07/15 00:05:07;;;;;;;11.10;2.50;;;12.10;99.90;;;;;;6155233;23;20013;-85
2022/07/15 00:07:33;;;;;;;15.35;2.92;;;12.10;99.90;;;;;;6130010;23;20354;-85
2022/07/15 00:10:14;;;;;;;12.18;2.63;;;12.10;99.90;;;;;;6129686;23;20041;-86
2022/07/15 00:12:44;;;;;;;10.38;2.90;;;12.10;99.90;;;;;;6155392;23;20112;-85
2022/07/15 00:15:10;;;;;;;14.10;2.90;;;12.10;99.90;;;;;;6129853;23;20017;-86
2022/07/15 00:17:35;;;;;;;9.82;2.90;;;12.10;99.90;;;;;;6155906;23;20013;-85
2022/07/15 00:20:01;;;;;;;8.23;2.75;;;12.40;99.90;;;;;;6154873;23;20125;-85
2022/07/15 00:22:27;;;;;;;9.75;2.80;;;12.10;99.90;;;;;;6129547;23;20022;-85
2022/07/15 00:24:52;;;;;;;13.70;3.25;;;12.10;99.90;;;;;;6129186;23;20406;-85
2022/07/15 00:27:19;;;;;;;13.10;2.65;;;12.20;99.90;;;;;;6154644;23;20014;-85
2022/07/15 00:29:44;;;;;;;9.00;2.47;;;12.10;99.90;;;;;;6129003;23;20049;-85
2022/07/15 00:32:10;;;;;;;11.70;2.95;;;12.10;99.90;;;;;;6129401;23;20021;-85
2022/07/15 00:34:36;;;;;;;11.52;2.60;;;12.10;99.90;;;;;;6128281;23;20024;-85
2022/07/15 00:37:01;;;;;;;12.30;3.00;;;12.20;99.90;;;;;;6129201;23;20014;-86
2022/07/15 00:39:27;;;;;;;11.10;2.60;;;12.10;99.90;;;;;;6155113;23;20432;-85
2022/07/15 00:41:53;;;;;;;11.23;2.85;;;12.20;99.90;;;;;;6155131;23;20132;-85
2022/07/15 00:44:18;;;;;;;9.15;2.83;;;12.20;99.90;;;;;;6155767;23;20049;-85
2022/07/15 00:46:44;;;;;;;9.60;3.20;;;12.20;99.90;;;;;;6153878;23;20014;-85
2022/07/15 00:49:10;;;;;;;9.25;3.08;;;12.20;99.90;;;;;;6155681;23;20022;-86
2022/07/15 00:51:55;;;;;;;10.32;2.75;;;12.30;99.90;;;;;;6129777;23;20343;-85
2022/07/15 00:54:26;;;;;;;10.25;2.60;;;12.30;99.90;;;;;;6155163;23;20016;-86
2022/07/15 00:57:05;;;;;;;8.90;2.50;;;12.30;99.90;;;;;;6155899;23;20469;-85
2022/07/15 00:59:36;;;;;;;9.10;2.60;;;13.30;99.90;;;;;;6128998;23;20021;-86
2022/07/15 01:02:02;;;;;;;10.35;2.60;;;12.20;99.90;;;;;;6153994;23;20018;-86
2022/07/15 01:04:28;;;;;;;9.05;2.30;;;12.40;99.90;;;;;;6129194;23;20036;-86
2022/07/15 01:06:54;;;;;;;10.05;2.22;;;12.40;99.90;;;;;;6128771;23;20024;-86
2022/07/15 01:09:21;;;;;;;9.45;2.35;;;12.40;99.90;;;;;;6154597;23;20017;-86
2022/07/15 01:11:47;;;;;;;8.57;2.20;;;12.70;99.90;;;;;;6128895;23;20013;-85
2022/07/15 01:14:13;;;;;;;8.23;2.35;;;12.40;99.90;;;;;;6129233;23;20024;-86
2022/07/15 01:16:57;;;;;;;10.13;2.92;;;12.50;99.90;;;;;;6153616;23;20049;-86
2022/07/15 01:19:42;;;;;;;9.90;2.80;;;12.60;99.90;;;;;;6153534;23;20060;-86
2022/07/15 01:22:25;;;;;;;12.57;3.00;;;12.50;99.90;;;;;;6154130;23;20048;-85
2022/07/15 01:25:14;;;;;;;10.68;2.60;;;12.50;99.90;;;;;;6153295;23;20404;-85
2022/07/15 01:27:41;;;;;;;9.00;2.45;;;12.70;99.90;;;;;;6153341;23;20014;-86
2022/07/15 01:30:11;;;;;;;10.70;2.63;;;13.40;99.90;;;;;;6152774;23;20437;-86
2022/07/15 01:32:37;;;;;;;9.77;2.55;;;12.60;99.90;;;;;;6153775;23;20028;-86
2022/07/15 01:35:03;;;;;;;9.40;2.83;;;12.60;99.90;;;;;;6153355;23;20335;-85
2022/07/15 01:37:29;;;;;;;10.68;2.65;;;12.60;99.90;;;;;;6154487;23;20115;-86
2022/07/15 01:39:54;;;;;;;11.90;2.70;;;12.60;99.90;;;;;;6155316;23;20324;-86
2022/07/15 01:42:20;;;;;;;8.52;2.55;;;12.70;99.90;;;;;;6155152;23;20057;-86
2022/07/15 01:44:48;;;;;;;9.52;2.40;;;12.70;99.90;;;;;;6151986;23;20018;-86
2022/07/15 01:47:14;;;;;;;13.75;2.70;;;12.70;99.90;;;;;;6155501;23;20024;-85
2022/07/15 01:49:40;;;;;;;11.60;2.92;;;12.70;99.90;;;;;;6152466;23;20049;-85
2022/07/15 01:52:09;;;;;;;8.18;2.28;;;12.70;99.90;;;;;;6155692;23;20114;-85
2022/07/15 01:54:35;;;;;;;11.30;2.58;;;12.80;99.90;;;;;;6155774;23;20088;-85
2022/07/15 01:57:01;;;;;;;11.13;2.63;;;12.80;99.90;;;;;;6152692;23;20458;-86
2022/07/15 01:59:27;;;;;;;9.90;2.85;;;12.80;99.90;;;;;;6153663;23;20014;-85
2022/07/15 02:01:54;;;;;;;11.13;2.65;;;12.80;99.90;;;;;;6152900;23;20316;-85
2022/07/15 02:04:21;;;;;;;9.77;2.60;;;12.80;99.90;;;;;;6154383;23;20076;-85
2022/07/15 02:06:47;;;;;;;10.65;2.75;;;12.80;99.90;;;;;;6154838;23;20041;-86
2022/07/15 02:09:31;;;;;;;11.85;2.75;;;12.80;99.90;;;;;;6146238;23;20033;-85
2022/07/15 02:12:03;;;;;;;9.80;2.95;;;13.40;99.90;;;;;;6126577;23;20053;-86
2022/07/15 02:14:33;;;;;;;11.63;2.80;;;12.80;99.90;;;;;;6128830;23;20017;-85
2022/07/15 02:17:14;;;;;;;12.32;2.90;;;12.20;99.90;;;;;;6154736;23;20014;-86
2022/07/15 02:19:42;;;;;;;13.38;2.97;;;12.60;99.90;;;;;;6127638;23;20022;-85
2022/07/15 02:22:08;;;;;;;9.95;2.80;;;12.70;99.90;;;;;;6130047;23;20024;-87
2022/07/15 02:24:34;;;;;;;10.50;2.83;;;12.50;99.90;;;;;;6156950;23;20010;-85
2022/07/15 02:26:59;;;;;;;10.18;2.70;;;12.50;99.90;;;;;;6155838;23;20386;-85
2022/07/15 02:29:25;;;;;;;12.95;2.88;;;12.40;99.90;;;;;;6130657;23;20017;-85
2022/07/15 02:31:50;;;;;;;9.13;2.40;;;13.00;99.90;;;;;;6155498;23;20148;-86
2022/07/15 02:34:16;;;;;;;12.00;3.42;;;12.40;99.90;;;;;;6157103;23;20020;-85
2022/07/15 02:36:42;;;;;;;10.73;2.72;;;12.40;99.90;;;;;;6130097;23;20470;-86
2022/07/15 02:39:07;;;;;;;10.68;2.97;;;12.30;99.90;;;;;;6156089;23;20077;-85
2022/07/15 02:41:33;;;;;;;11.13;2.65;;;12.30;99.90;;;;;;6130514;23;20021;-85
2022/07/15 02:44:00;;;;;;;11.50;3.40;;;12.30;99.90;;;;;;6156223;23;20029;-85
2022/07/15 02:46:26;;;;;;;10.20;2.92;;;12.30;99.90;;;;;;6129855;23;20025;-86
2022/07/15 02:48:51;;;;;;;9.82;2.63;;;12.20;99.90;;;;;;6156534;23;20040;-86
2022/07/15 02:51:17;;;;;;;7.70;2.30;;;12.20;99.90;;;;;;6156475;23;20014;-85
2022/07/15 02:53:42;;;;;;;13.95;2.63;;;12.20;99.90;;;;;;6155392;23;20021;-85
2022/07/15 02:56:09;;;;;;;11.93;3.28;;;12.10;99.90;;;;;;6156432;23;20517;-85
2022/07/15 02:58:34;;;;;;;9.05;2.53;;;12.10;99.90;;;;;;6130658;23;20017;-85
2022/07/15 03:01:00;;;;;;;10.13;2.88;;;12.00;99.90;;;;;;6154730;23;20375;-85
2022/07/15 03:03:28;;;;;;;9.45;2.83;;;12.30;99.90;;;;;;6130148;23;20390;-85
2022/07/15 03:05:58;;;;;;;10.25;2.75;;;11.90;99.90;;;;;;6129496;23;20343;-86
2022/07/15 03:08:38;;;;;;;10.20;2.60;;;11.90;99.90;;;;;;6158101;23;20426;-85
2022/07/15 03:12:10;;;;;;;13.38;2.70;;;11.60;99.90;;;;;;6244046;22;20065;-86
2022/07/15 03:15:41;;;;;;;9.88;2.75;;;11.80;99.90;;;;;;6276137;22;20046;-85
2022/07/15 03:18:31;;;;;;;10.82;2.50;;;11.70;99.90;;;;;;6249726;22;20022;-86
2022/07/15 03:20:57;;;;;;;10.93;2.65;;;11.70;99.90;;;;;;6249267;22;20034;-86
2022/07/15 03:23:29;;;;;;;11.75;2.55;;;11.50;99.90;;;;;;6248873;22;20487;-85
2022/07/15 03:26:10;;;;;;;11.30;3.00;;;11.30;99.90;;;;;;6276904;22;20444;-85
2022/07/15 03:28:41;;;;;;;15.25;2.88;;;12.40;99.90;;;;;;6248948;22;20018;-86
2022/07/15 03:31:14;;;;;;;8.38;2.30;;;12.80;99.90;;;;;;6276963;22;20016;-86
2022/07/15 03:33:40;;;;;;;10.15;2.45;;;11.60;99.90;;;;;;6277086;22;20020;-86
2022/07/15 03:36:05;;;;;;;11.18;2.45;;;11.50;99.90;;;;;;6276064;22;20121;-85
2022/07/15 03:38:32;;;;;;;10.27;2.70;;;11.50;99.90;;;;;;6250316;22;20039;-86
2022/07/15 03:40:57;;;;;;;10.13;2.97;;;11.50;99.90;;;;;;6249327;22;20019;-85
2022/07/15 03:43:26;;;;;;;11.38;2.72;;;11.50;99.90;;;;;;6276119;22;20020;-86
2022/07/15 03:45:53;;;;;;;9.93;2.70;;;11.50;99.90;;;;;;6249284;22;20022;-85
2022/07/15 03:48:22;;;;;;;10.18;2.70;;;11.50;99.90;;;;;;6249850;22;20081;-86
2022/07/15 03:50:48;;;;;;;11.07;2.40;;;11.50;99.90;;;;;;6275996;22;20058;-86
2022/07/15 03:53:13;;;;;;;10.63;2.83;;;11.50;99.90;;;;;;6277299;22;20011;-86
2022/07/15 03:55:39;;;;;;;7.78;2.58;;;11.50;99.90;;;;;;6250137;22;20011;-85
2022/07/15 03:58:05;;;;;;;18.88;3.22;;;11.50;99.90;;;;;;6248676;22;20086;-86
2022/07/15 04:00:31;;;;;;;12.60;3.10;;;11.50;99.90;;;;;;6241545;22;20095;-86
2022/07/15 04:02:57;;;;;;;12.73;3.13;;;11.40;99.90;;;;;;6248039;22;20055;-85
2022/07/15 04:05:22;;;;;;;10.40;2.63;;;11.50;99.90;;;;;;6248112;22;20086;-86
2022/07/15 04:07:48;;;;;;;9.23;2.70;;;11.50;99.90;;;;;;6276367;22;20463;-85
2022/07/15 04:10:14;;;;;;;10.27;2.60;;;11.50;99.90;;;;;;6249812;22;20057;-85
2022/07/15 04:12:41;;;;;;;11.85;2.65;;;11.50;99.90;;;;;;6248774;22;20073;-85
2022/07/15 04:15:07;;;;;;;9.38;2.70;;;11.50;99.90;;;;;;6249511;22;20125;-85
2022/07/15 04:17:33;;;;;;;14.35;3.08;;;11.60;99.90;;;;;;6248608;22;20019;-85
2022/07/15 04:19:59;;;;;;;11.45;2.40;;;11.60;99.90;;;;;;6276575;22;20016;-85
2022/07/15 04:22:24;;;;;;;9.70;3.10;;;11.60;99.90;;;;;;6249436;22;20479;-85
2022/07/15 04:24:50;;;;;;;8.88;2.42;;;11.60;99.90;;;;;;6275569;22;20016;-85
2022/07/15 04:27:15;;;;;;;11.68;2.50;;;11.70;99.90;;;;;;6276971;22;20436;-85
2022/07/15 04:29:41;;;;;;;12.43;2.63;;;11.70;99.90;;;;;;6276094;22;20095;-85
2022/07/15 04:32:07;;;;;;;12.32;2.90;;;11.70;99.90;;;;;;6275499;22;20435;-85
2022/07/15 04:34:32;;;;;;;9.77;2.53;;;11.70;99.90;;;;;;6276742;22;20054;-85
2022/07/15 04:37:01;;;;;;;9.02;2.67;;;11.80;99.90;;;;;;6276446;22;20018;-85
2022/07/15 04:39:30;;;;;;;12.43;2.30;;;11.80;99.90;;;;;;6230413;23;20090;-85
2022/07/15 04:42:22;;;;;;;8.68;2.53;;;11.70;99.90;;;;;;6218526;23;20027;-85
2022/07/15 04:44:47;;;;;;;8.68;2.35;;;11.90;99.90;;;;;;6218242;23;20071;-85
2022/07/15 04:47:14;;;;;;;11.52;2.55;;;12.00;99.90;;;;;;6218057;23;20024;-85
2022/07/15 04:52:29;;;;;;;10.43;2.30;;;12.00;99.90;;;;;;6246037;23;20024;-84
2022/07/15 04:54:56;;;;;;;11.38;2.28;;;12.10;99.90;;;;;;6218506;23;20031;-85
2022/07/15 04:57:21;;;;;;;13.90;2.70;;;12.20;99.90;;;;;;6246149;23;20023;-85
2022/07/15 04:59:47;;;;;;;7.97;2.22;;;12.20;99.90;;;;;;6217639;23;20008;-85
2022/07/15 05:02:13;;;;;;;10.70;2.10;;;12.30;99.90;;;;;;6218890;23;20058;-85
2022/07/15 05:04:39;;;;;;;10.07;2.50;;;12.40;99.90;;;;;;6245864;23;20344;-85
2022/07/15 05:07:05;;;;;;;9.35;2.45;;;12.50;99.90;;;;;;6217429;23;20004;-85
2022/07/15 05:09:32;;;;;;;9.98;2.60;;;12.50;99.90;;;;;;6245490;23;20082;-85
2022/07/15 05:11:58;;;;;;;10.90;2.50;;;13.40;99.90;;;;;;6245696;23;20348;-85
2022/07/15 05:14:24;;;;;;;9.68;2.65;;;13.80;99.90;;;;;;6217925;23;20016;-85
2022/07/15 05:16:50;;;;;;;9.65;2.55;;;12.80;99.90;;;;;;6245314;23;20027;-85
2022/07/15 05:19:15;;;;;;;10.23;2.13;;;12.80;99.90;;;;;;6245657;23;20004;-85
2022/07/15 05:21:41;;;;;;;8.68;2.13;;;12.90;99.90;;;;;;6244519;23;20012;-85
2022/07/15 05:24:07;;;;;;;10.02;2.70;;;12.90;99.90;;;;;;6219076;23;20059;-86
2022/07/15 05:26:32;;;;;;;8.52;2.00;;;13.00;99.90;;;;;;6245465;23;20019;-85
2022/07/15 05:28:59;;;;;;;10.57;2.10;;;13.10;99.90;;;;;;6217276;23;20064;-85
2022/07/15 05:31:25;;;;;;;10.02;3.15;;;13.80;99.90;;;;;;6218569;23;20016;-85
2022/07/15 05:33:52;;;;;;;8.75;2.08;;;13.20;99.90;;;;;;6217794;23;20015;-85
2022/07/15 05:36:18;;;;;;;7.00;1.98;;;14.10;99.90;;;;;;6244543;23;20016;-85
2022/07/15 05:38:45;;;;;;;8.85;2.30;;;13.30;99.90;;;;;;6245163;23;20008;-85
2022/07/15 05:41:10;;;;;;;9.13;1.95;;;13.40;99.90;;;;;;6245451;23;20380;-86
2022/07/15 05:43:37;;;;;;;8.98;2.05;;;13.70;99.90;;;;;;6244168;23;20020;-86
2022/07/15 05:46:06;;;;;;;7.78;1.80;;;14.30;99.90;;;;;;6217977;23;20016;-88
2022/07/15 05:48:44;;;;;;;10.63;1.95;;;13.70;99.90;;;;;;6234079;22;20011;-90
2022/07/15 05:51:13;;;;;;;7.30;1.92;;;14.80;99.90;;;;;;6248561;22;20364;-91
2022/07/15 05:53:45;;;;;;;8.80;2.10;;;13.90;99.90;;;;;;6244353;22;20456;-90
2022/07/15 05:56:15;;;;;;;9.50;2.08;;;13.70;99.90;;;;;;6250499;22;20020;-90
2022/07/15 05:58:58;;;;;;;12.13;2.13;;;14.20;99.90;;;;;;6250455;22;20043;-91
2022/07/15 06:01:24;;;;;;;9.93;2.17;;;14.10;99.90;;;;;;6251565;22;20035;-89
2022/07/15 06:03:49;;;;;;;8.38;2.00;;;13.90;99.90;;;;;;6249449;22;20336;-92
2022/07/15 06:06:16;;;;;;;8.00;1.90;;;14.30;99.90;;;;;;6250847;22;20014;-89
2022/07/15 06:08:42;;;;;;;9.23;1.90;;;15.10;99.90;;;;;;6250198;22;20446;-88
2022/07/15 06:11:11;;;;;;;10.98;2.30;;;15.00;99.90;;;;;;6250422;22;20016;-90
2022/07/15 06:13:46;;;;;;;6.15;1.90;;;14.10;99.90;;;;;;6277781;22;20095;-89
2022/07/15 06:19:58;;;;;;;8.63;1.80;;;13.90;99.90;;;;;;6186089;23;20394;-91
2022/07/15 06:22:30;;;;;;;6.20;1.80;;;14.10;99.90;;;;;;6161138;23;20017;-91
2022/07/15 06:24:59;;;;;;;12.48;2.40;;;14.80;99.90;;;;;;6186022;23;20516;-89
2022/07/15 06:27:31;;;;;;;6.28;1.65;;;15.40;99.90;;;;;;6160474;23;20016;-89
2022/07/15 06:30:06;;;;;;;6.63;1.77;;;14.40;99.90;;;;;;6186629;23;20017;-89
2022/07/15 06:32:35;;;;;;;5.82;1.50;;;14.70;99.90;;;;;;6158557;23;20028;-89
2022/07/15 06:35:30;;;;;;;7.13;1.83;;;15.20;99.90;;;;;;6159716;23;20020;-88
2022/07/15 06:38:05;;;;;;;5.03;1.50;;;14.80;99.90;;;;;;6182644;23;20019;-89
2022/07/15 06:41:19;;;;;;;5.53;1.38;;;14.70;99.90;;;;;;6186827;23;20048;-90
2022/07/15 06:44:19;;;;;;;4.00;1.40;;;14.70;99.90;;;;;;6186515;23;20017;-90
2022/07/15 06:46:54;;;;;;;5.05;1.33;;;14.80;99.90;;;;;;6158882;23;20025;-89
2022/07/15 06:49:35;;;;;;;5.38;1.30;;;15.50;99.90;;;;;;6186937;23;20025;-90
2022/07/15 06:52:20;;;;;;;2.20;1.10;;;16.20;99.90;;;;;;6186052;23;20090;-90
2022/07/15 06:55:05;;;;;;;4.03;1.25;;;15.30;99.90;;;;;;6160438;23;20071;-93
2022/07/15 06:57:33;;;;;;;3.35;1.20;;;15.40;99.90;;;;;;6160281;23;20017;-93
2022/07/15 07:00:39;;;;;;;4.03;1.30;;;15.60;99.90;;;;;;6186040;23;20076;-88
2022/07/15 07:03:13;;;;;;;3.42;1.30;;;15.70;99.90;;;;;;6186437;23;20071;-90
2022/07/15 07:05:48;;;;;;;7.57;1.63;;;15.10;99.90;;;;;;6159309;23;20100;-90
2022/07/15 07:08:38;;;;;;;5.78;1.88;;;17.10;99.90;;;;;;6181363;23;20021;-90
2022/07/15 07:11:17;;;;;;;3.75;1.13;;;17.00;99.90;;;;;;6186062;23;20009;-89
2022/07/15 07:14:19;;;;;;;4.95;1.20;;;17.30;99.90;;;;;;6158827;23;20025;-89
2022/07/15 07:17:48;;;;;;;4.40;1.20;;;17.70;99.90;;;;;;6185071;23;20079;-89
2022/07/15 07:21:08;;;;;;;3.88;1.10;;;16.80;99.90;;;;;;6185310;23;20021;-88
2022/07/15 07:24:34;;;;;;;3.13;1.05;;;16.90;99.90;;;;;;6159521;23;20021;-89
2022/07/15 07:27:00;;;;;;;4.05;1.25;;;16.90;99.90;;;;;;6158454;23;20354;-88
2022/07/15 07:29:38;;;;;;;5.88;1.17;;;16.80;99.90;;;;;;6158492;23;20067;-88
2022/07/15 07:32:25;;;;;;;5.60;1.55;;;16.50;99.90;;;;;;6159274;23;20087;-91
2022/07/15 07:34:57;;;;;;;4.70;1.23;;;17.40;99.90;;;;;;6149948;23;20045;-89
2022/07/15 07:37:41;;;;;;;6.68;1.40;;;17.70;99.90;;;;;;6131145;23;20342;-90
2022/07/15 07:40:54;;;;;;;4.20;1.27;;;17.10;99.90;;;;;;6127392;23;20009;-89
2022/07/15 07:44:54;;;;;;;;;;;;;;;;;;;;;
2022/07/15 07:48:44;;;;;;;7.35;1.60;;;16.90;99.90;;;;;;6065728;23;20026;-91
2022/07/15 07:51:59;;;;;;;4.83;1.37;;;17.00;99.90;;;;;;6041763;23;20487;-91
2022/07/15 07:55:26;;;;;;;4.32;1.20;;;16.90;99.90;;;;;;6041756;23;20119;-92
2022/07/15 07:57:57;;;;;;;4.53;1.35;;;17.00;99.90;;;;;;6157103;23;20500;-91
2022/07/15 08:00:45;;;;;;;4.20;1.30;;;17.40;99.90;;;;;;6159721;23;20044;-92
2022/07/15 08:03:29;;;;;;;4.93;1.52;;;17.50;99.90;;;;;;6184874;23;20346;-92
2022/07/15 08:05:58;;;;;;;1.73;1.00;;;18.60;99.90;;;;;;6169276;23;20017;-91
2022/07/15 08:08:45;;;;;;;4.13;1.20;;;19.10;99.90;;;;;;6159425;23;20017;-91
2022/07/15 08:15:03;;;;;;;4.20;1.23;;;18.20;99.90;;;;;;6185458;23;20055;-92
2022/07/15 08:17:35;;;;;;;2.28;1.10;;;17.70;99.90;;;;;;6203390;23;20027;-90
2022/07/15 08:20:25;;;;;;;3.90;1.20;;;17.90;99.90;;;;;;6218457;23;20075;-90
2022/07/15 08:23:14;;;;;;;5.18;1.30;;;17.90;99.90;;;;;;6218617;23;20019;-91
2022/07/15 08:25:52;;;;;;;3.40;1.00;;;18.90;99.90;;;;;;6244443;23;20340;-89
2022/07/15 08:28:30;;;;;;;5.95;1.50;;;18.30;99.90;;;;;;6246025;23;20016;-90
2022/07/15 08:31:01;;;;;;;3.92;1.30;;;19.10;99.90;;;;;;6243741;23;20012;-91
2022/07/15 08:40:43;;;;;;;2.53;1.10;;;17.80;99.90;;;;;;6157265;23;20071;-90
2022/07/15 08:43:48;;;;;;;4.47;1.23;;;18.10;99.90;;;;;;6158164;23;20416;-90
2022/07/15 08:52:30;;;;;;;3.47;1.35;;;18.70;99.90;;;;;;6035434;23;20107;-89
2022/07/15 08:55:08;;;;;;;4.47;1.20;;;18.90;99.90;;;;;;6013009;23;20019;-88
2022/07/15 08:58:09;;;;;;;5.03;1.27;;;18.80;99.90;;;;;;6131598;23;20017;-89
2022/07/15 09:00:47;;;;;;;3.88;1.00;;;18.50;99.90;;;;;;6184000;23;20040;-90
2022/07/15 09:03:31;;;;;;;4.82;1.20;;;18.30;99.90;;;;;;6185456;23;20049;-88
2022/07/15 09:06:06;;;;;;;5.68;1.10;;;19.50;99.90;;;;;;6183991;23;20017;-90
2022/07/15 09:09:28;;;;;;;5.20;1.33;;;18.60;99.90;;;;;;6158862;23;20021;-87
2022/07/15 09:12:11;;;;;;;3.30;1.00;;;18.40;99.90;;;;;;6012470;23;20045;-90
2022/07/15 09:14:44;;;;;;;3.83;1.40;;;18.50;99.90;;;;;;6036210;23;20023;-89
2022/07/15 09:17:33;;;;;;;2.90;1.10;;;19.30;99.90;;;;;;6013319;23;20023;-88
2022/07/15 09:20:26;;;;;;;3.50;1.10;;;19.10;99.90;;;;;;5983651;23;20022;-88
2022/07/15 09:23:17;;;;;;;5.40;1.30;;;20.10;99.90;;;;;;5900773;24;20028;-87
2022/07/15 09:26:36;;;;;;;3.72;1.10;;;19.20;99.90;;;;;;5873279;23;20023;-88
2022/07/15 09:38:24;;;;;;;1.92;1.00;;;19.90;99.90;;;;;;6184906;23;20025;-87
2022/07/15 09:41:01;;;;;;;2.88;1.23;;;19.20;99.90;;;;;;6157833;23;20013;-88
2022/07/15 09:43:27;;;;;;;3.45;1.20;;;20.30;99.90;;;;;;6159107;23;20024;-88
2022/07/15 09:46:16;;;;;;;5.60;1.35;;;19.40;99.90;;;;;;6184577;23;20017;-88
2022/07/15 09:48:57;;;;;;;3.05;1.10;;;19.40;99.90;;;;;;6157147;23;20073;-88
2022/07/15 09:52:19;;;;;;;2.58;1.10;;;19.40;99.90;;;;;;6158396;23;20021;-88
2022/07/15 09:54:57;;;;;;;2.28;1.08;;;19.30;99.90;;;;;;6003285;23;20019;-88
2022/07/15 09:57:33;;;;;;;2.63;1.05;;;19.10;99.90;;;;;;6013020;23;20327;-88
2022/07/15 10:00:11;;;;;;;4.82;1.45;;;19.10;99.90;;;;;;6036225;23;20023;-88
2022/07/15 10:02:45;;;;;;;2.33;1.02;;;19.20;99.90;;;;;;6035375;23;20067;-88
2022/07/15 10:05:20;;;;;;;3.90;1.17;;;19.40;99.90;;;;;;6036117;23;20030;-87
2022/07/15 10:08:34;;;;;;;3.38;1.05;;;19.90;99.90;;;;;;6035666;23;20088;-87
2022/07/15 10:29:34;;;;;;;1.92;1.10;;;18.70;99.90;;;;;;6246351;22;20019;-89
2022/07/15 10:32:15;;;;;;;4.15;1.13;;;18.60;99.90;;;;;;6274331;22;20019;-89
2022/07/15 10:34:50;;;;;;;3.75;1.17;;;18.50;99.90;;;;;;6248136;22;20016;-88
2022/07/15 10:37:27;;;;;;;1.83;1.05;;;19.50;99.90;;;;;;6274821;22;20016;-89
2022/07/15 10:40:08;;;;;;;2.95;1.10;;;19.50;99.90;;;;;;6275573;22;20016;-88
2022/07/15 10:43:29;;;;;;;3.28;1.10;;;18.80;99.90;;;;;;6249238;22;20026;-94
2022/07/15 10:46:38;;;;;;;2.42;0.95;;;19.00;99.90;;;;;;6248293;22;20448;-89
2022/07/15 10:49:22;;;;;;;5.20;1.10;;;19.00;99.90;;;;;;6271852;22;20436;-87
2022/07/15 10:55:35;;;;;;;1.30;0.90;;;19.80;99.90;;;;;;6190047;23;19916;-88
2022/07/15 10:59:11;;;;;;;3.90;1.10;;;20.10;99.90;;;;;;6065351;23;20019;-93
2022/07/15 11:06:05;;;;;;;2.72;1.30;;;20.50;99.70;;;;;;6246196;23;20019;-96
2022/07/15 11:12:30;;;;;;;2.57;1.10;;;20.50;99.10;;;;;;6247746;23;20028;-95
2022/07/15 11:19:35;;;;;;;1.77;1.00;;;20.60;97.80;;;;;;6101593;23;20332;-95
2022/07/15 11:44:32;;;;;;;2.67;1.08;;;20.10;99.70;;;;;;6126270;23;20391;-95
2022/07/15 11:47:18;;;;;;;4.05;1.25;;;20.10;99.70;;;;;;6091173;23;20258;-94
2022/07/15 11:56:41;;;;;;;4.40;1.10;;;20.40;99.40;;;;;;6247928;23;20058;-94
2022/07/15 12:09:07;;;;;;;2.00;1.00;;;21.40;98.50;;;;;;6245399;23;20024;-88
2022/07/15 12:12:14;;;;;;;4.50;1.27;;;22.30;98.00;;;;;;6202875;22;20012;-87
2022/07/15 12:18:41;;;;;;;3.05;1.30;;;21.20;98.80;;;;;;6153597;23;20064;-87
2022/07/15 12:28:42;;;;;;;2.88;1.30;;;21.70;98.10;;;;;;6123322;23;20018;-88
2022/07/15 12:50:43;;;;;;;4.60;1.10;;;20.80;97.70;;;;;;6185164;23;20063;-86
2022/07/15 12:57:52;;;;;;;4.82;1.50;;;21.70;97.90;;;;;;6184795;23;20012;-87
2022/07/15 13:00:37;;;;;;;3.30;1.30;;;21.60;97.30;;;;;;6158695;23;20465;-87
2022/07/15 13:03:26;;;;;;;2.67;1.30;;;22.00;94.80;;;;;;6158522;23;20028;-87
2022/07/15 13:06:01;;;;;;;3.55;1.20;;;22.00;95.00;;;;;;6148031;23;20029;-88
2022/07/15 13:08:57;;;;;;;5.47;1.20;;;22.10;95.20;;;;;;6152906;23;20018;-89
2022/07/15 13:13:59;;;;;;;2.83;1.10;;;21.90;96.30;;;;;;6241245;23;20016;-88
2022/07/15 13:23:49;;;;;;;4.88;1.17;;;21.20;96.40;;;;;;6243452;23;20091;-90
2022/07/15 13:27:06;;;;;;;2.38;1.15;;;21.00;97.00;;;;;;6242797;23;20074;-89
2022/07/15 13:29:32;;;;;;;4.07;1.30;;;20.70;96.30;;;;;;6244336;23;20384;-88
2022/07/15 13:32:13;;;;;;;4.05;1.35;;;20.70;96.80;;;;;;6243197;23;20020;-87
2022/07/15 13:35:19;;;;;;;15.73;1.75;;;21.50;97.30;;;;;;6212419;23;20026;-91
2022/07/15 13:37:54;;;;;;;4.55;1.30;;;20.70;97.10;;;;;;6246082;23;20020;-88
2022/07/15 13:43:50;;;;;;;6.32;1.20;;;20.70;97.50;;;;;;6246276;23;20020;-85
2022/07/15 13:46:16;;;;;;;2.10;1.00;;;20.80;97.60;;;;;;6218413;23;20020;-85
2022/07/15 13:48:56;;;;;;;4.82;1.30;;;20.70;98.00;;;;;;6243538;23;20023;-84
2022/07/15 13:51:26;;;;;;;2.85;1.10;;;20.70;97.50;;;;;;6242523;23;20340;-86
2022/07/15 13:54:13;;;;;;;3.35;1.30;;;20.80;97.90;;;;;;6243213;23;20008;-86
2022/07/15 13:56:47;;;;;;;2.67;1.10;;;20.60;97.00;;;;;;6173691;23;20033;-86
2022/07/15 13:59:16;;;;;;;3.45;1.20;;;20.90;97.60;;;;;;6111564;23;20473;-86
2022/07/15 14:02:08;;;;;;;4.85;1.40;;;20.90;97.60;;;;;;6119315;23;20355;-86
2022/07/15 14:04:40;;;;;;;3.85;1.27;;;21.20;97.90;;;;;;6098709;23;20014;-86
2022/07/15 14:07:15;;;;;;;4.32;1.10;;;21.40;97.70;;;;;;6125262;23;20021;-86
2022/07/15 14:09:42;;;;;;;2.58;1.20;;;21.50;95.70;;;;;;6123694;23;20021;-86
2022/07/15 14:15:31;;;;;;;4.07;1.13;;;21.40;95.20;;;;;;6125001;23;20029;-87
2022/07/15 14:17:58;;;;;;;2.58;1.20;;;21.80;96.30;;;;;;6099173;23;20022;-86
2022/07/15 14:20:45;;;;;;;2.97;1.20;;;21.70;96.20;;;;;;6127359;23;20037;-86
2022/07/15 14:23:12;;;;;;;2.67;1.08;;;21.80;96.10;;;;;;6100246;23;20029;-86
2022/07/15 14:25:55;;;;;;;3.45;1.17;;;21.80;96.20;;;;;;6135881;23;20014;-87
2022/07/15 14:28:21;;;;;;;;;;;21.50;96.50;;;;;;6160905;23;20028;-86
2022/07/15 14:30:46;;;;;;;5.43;1.17;;;20.90;95.90;;;;;;6185560;23;19979;-86
2022/07/15 14:33:12;;;;;;;3.88;1.20;;;21.90;97.00;;;;;;6185608;23;20013;-87
2022/07/15 14:35:38;;;;;;;2.70;1.10;;;21.90;96.70;;;;;;6185808;23;20035;-85
2022/07/15 14:38:06;;;;;;;2.40;1.10;;;21.40;96.80;;;;;;6159509;23;20017;-85
2022/07/15 14:40:38;;;;;;;2.67;1.20;;;21.30;96.90;;;;;;6160232;23;20454;-86
2022/07/15 14:43:04;;;;;;;2.20;1.15;;;20.80;97.30;;;;;;6159340;23;20100;-86
2022/07/15 14:45:30;;;;;;;3.90;1.30;;;20.80;97.20;;;;;;6158726;23;20041;-85
2022/07/15 14:48:05;;;;;;;2.33;1.05;;;21.10;97.30;;;;;;6183851;23;20164;-86
2022/07/15 14:50:32;;;;;;;2.42;1.10;;;21.20;97.30;;;;;;6157404;23;20017;-86
2022/07/15 14:53:10;;;;;;;6.00;1.50;;;21.40;97.10;;;;;;6167922;23;20025;-86
2022/07/15 14:56:38;;;;;;;1.83;1.05;;;21.90;96.90;;;;;;6185755;23;20017;-85
2022/07/15 14:59:05;;;;;;;3.17;1.20;;;21.40;97.30;;;;;;6183892;23;20096;-84
2022/07/15 15:01:33;;;;;;;3.95;1.30;;;21.60;97.30;;;;;;6158214;23;20021;-85
2022/07/15 15:03:59;;;;;;;3.85;1.10;;;21.90;97.20;;;;;;6184955;23;20656;-87
2022/07/15 15:06:39;;;;;;;3.33;1.27;;;21.30;97.10;;;;;;6184397;23;20528;-86
2022/07/15 15:09:17;;;;;;;5.20;1.40;;;22.00;97.60;;;;;;6158489;23;20040;-86
2022/07/15 15:12:01;;;;;;;6.00;1.30;;;21.20;97.60;;;;;;6157792;23;20024;-87
2022/07/15 15:14:30;;;;;;;2.75;1.30;;;21.20;97.50;;;;;;6191193;23;20021;-86
2022/07/15 15:17:14;;;;;;;5.18;1.50;;;21.20;98.00;;;;;;6167000;23;20017;-86
2022/07/15 15:20:05;;;;;;;4.30;1.38;;;21.30;97.90;;;;;;6183931;23;20025;-86
2022/07/15 15:22:41;;;;;;;2.20;1.15;;;21.20;97.50;;;;;;6160757;23;20017;-86
2022/07/15 15:25:09;;;;;;;3.95;1.30;;;21.40;97.70;;;;;;6131010;23;20406;-86
2022/07/15 15:27:53;;;;;;;5.47;1.67;;;21.40;97.50;;;;;;6129419;23;20021;-87
2022/07/15 15:30:34;;;;;;;5.40;1.48;;;21.60;97.60;;;;;;6130570;23;20379;-86
2022/07/15 15:33:22;;;;;;;5.03;1.30;;;22.10;97.60;;;;;;6155067;23;20934;-87
2022/07/15 15:35:47;;;;;;;3.30;1.30;;;21.20;97.50;;;;;;6129571;23;20510;-87
2022/07/15 15:38:25;;;;;;;5.03;1.50;;;21.90;97.90;;;;;;6156533;23;20017;-87
2022/07/15 15:41:00;;;;;;;3.58;1.30;;;21.20;97.60;;;;;;6153518;23;20052;-87
2022/07/15 15:43:28;;;;;;;4.03;1.45;;;21.50;97.70;;;;;;6130232;23;20025;-89
2022/07/15 15:46:04;;;;;;;4.95;1.30;;;21.70;97.90;;;;;;6127957;23;20458;-89
2022/07/15 15:48:33;;;;;;;6.43;1.55;;;22.00;96.40;;;;;;6131427;23;20049;-88
2022/07/15 15:50:58;;;;;;;4.40;1.45;;;22.30;96.50;;;;;;6129342;23;20161;-88
2022/07/15 15:53:30;;;;;;;4.72;1.40;;;22.60;95.80;;;;;;6129713;23;20057;-88
2022/07/15 15:56:39;;;;;;;5.85;1.50;;;22.80;95.90;;;;;;6162810;23;20009;-87
2022/07/15 15:59:15;;;;;;;4.15;1.58;;;21.90;96.00;;;;;;6012829;23;20030;-88
2022/07/15 16:01:43;;;;;;;4.80;1.52;;;21.80;96.70;;;;;;6156598;23;20017;-88
2022/07/15 16:04:18;;;;;;;5.75;1.60;;;22.00;96.90;;;;;;6185391;23;20203;-88
2022/07/15 16:07:03;;;;;;;6.13;1.67;;;21.70;96.80;;;;;;6159383;23;20446;-90
2022/07/15 16:09:28;;;;;;;4.65;1.58;;;21.50;96.70;;;;;;6184890;23;20017;-90